createdAt,value
2023-07-24T00:01:24.459Z,100464.03
2023-07-24T00:03:51.106Z,100471.66
2023-07-24T00:06:17.650Z,100472.63
2023-07-24T00:08:44.197Z,100471.19
2023-07-24T00:11:10.949Z,100474.34
2023-07-24T00:13:37.629Z,100468.00
2023-07-24T00:16:11.426Z,100466.78
2023-07-24T00:18:37.971Z,100467.28
2023-07-24T00:21:04.489Z,100467.03
2023-07-24T00:23:31.036Z,100460.69
2023-07-24T00:25:57.587Z,100456.78
2023-07-24T00:28:24.173Z,100458.47
2023-07-24T00:30:50.807Z,100450.69
2023-07-24T00:33:18.016Z,100447.50
2023-07-24T00:35:44.832Z,100451.69
2023-07-24T00:38:12.654Z,100446.78
2023-07-24T00:40:39.263Z,100450.47
2023-07-24T00:43:05.955Z,100446.31
2023-07-24T00:45:32.899Z,100438.97
2023-07-24T00:48:01.249Z,100435.53
2023-07-24T00:50:29.913Z,100429.44
2023-07-24T00:52:57.267Z,100425.28
2023-07-24T00:55:24.022Z,100416.97
2023-07-24T00:57:50.790Z,100415.50
2023-07-24T01:00:17.642Z,100405.22
2023-07-24T01:02:45.264Z,100406.44
2023-07-24T01:05:15.875Z,100400.34
2023-07-24T01:07:42.774Z,100404.25
2023-07-24T01:10:11.034Z,100408.16
2023-07-24T01:12:41.891Z,100409.41
2023-07-24T01:15:15.368Z,100405.97
2023-07-24T01:17:49.173Z,100410.13
2023-07-24T01:20:18.752Z,100410.88
2023-07-24T01:23:07.534Z,100408.16
2023-07-24T01:25:37.698Z,100401.31
2023-07-24T01:28:10.497Z,100403.78
2023-07-24T01:30:37.029Z,100398.16
2023-07-24T01:33:03.760Z,100401.34
2023-07-24T01:35:31.580Z,100403.78
2023-07-24T01:38:01.206Z,100401.09
2023-07-24T01:40:27.801Z,100397.69
2023-07-24T01:42:54.531Z,100396.22
2023-07-24T01:45:21.172Z,100390.81
2023-07-24T01:47:47.736Z,100392.06
2023-07-24T01:50:14.469Z,100389.38
2023-07-24T01:52:41.107Z,100376.91
2023-07-24T01:55:08.153Z,100377.41
2023-07-24T01:57:34.709Z,100365.69
2023-07-24T02:00:01.250Z,100370.81
2023-07-24T02:02:27.896Z,100375.47
2023-07-24T02:04:55.648Z,100367.91
2023-07-24T02:07:22.923Z,100366.69
2023-07-24T02:09:49.527Z,100365.44
2023-07-24T02:12:16.053Z,100364.22
2023-07-24T02:14:42.525Z,100364.22
2023-07-24T02:17:11.202Z,100364.72
2023-07-24T02:19:37.964Z,100365.94
2023-07-24T02:22:06.376Z,100363.00
2023-07-24T02:24:35.632Z,100356.91
2023-07-24T02:27:02.611Z,100352.75
2023-07-24T02:29:31.904Z,100352.50
2023-07-24T02:31:59.426Z,100345.66
2023-07-24T02:34:27.207Z,100346.16
2023-07-24T02:36:54.330Z,100346.16
2023-07-24T02:39:21.588Z,100340.03
2023-07-24T02:41:49.163Z,100336.13
2023-07-24T02:44:15.762Z,100334.91
2023-07-24T02:46:42.350Z,100332.72
2023-07-24T02:49:08.929Z,100334.66
2023-07-24T02:51:35.396Z,100334.66
2023-07-24T02:54:01.867Z,100339.31
2023-07-24T02:56:28.583Z,100337.84
2023-07-24T02:58:55.287Z,100327.81
2023-07-24T03:01:21.792Z,100333.69
2023-07-24T03:03:48.396Z,100329.06
2023-07-24T03:06:14.966Z,100327.81
2023-07-24T03:08:41.486Z,100321.00
2023-07-24T03:11:08.667Z,100325.63
2023-07-24T03:13:35.270Z,100321.00
2023-07-24T03:16:01.913Z,100321.00
2023-07-24T03:18:28.571Z,100332.22
2023-07-24T03:20:55.123Z,100324.66
2023-07-24T03:23:21.714Z,100314.63
2023-07-24T03:25:48.266Z,100310.00
2023-07-24T03:28:14.884Z,100300.47
2023-07-24T03:30:41.440Z,100297.03
2023-07-24T03:33:08.420Z,100315.13
2023-07-24T03:35:35.057Z,100314.41
2023-07-24T03:38:01.570Z,100315.63
2023-07-24T03:40:28.469Z,100306.09
2023-07-24T03:42:55.052Z,100304.63
2023-07-24T03:45:22.399Z,100316.38
2023-07-24T03:47:48.964Z,100319.53
2023-07-24T03:50:15.715Z,100303.19
2023-07-24T03:52:42.237Z,100292.41
2023-07-24T03:55:09.157Z,100311.25
2023-07-24T03:57:35.935Z,100312.47
2023-07-24T04:00:03.522Z,100311.72
2023-07-24T04:02:39.241Z,100305.38
2023-07-24T04:05:05.877Z,100298.78
2023-07-24T04:07:32.381Z,100306.59
2023-07-24T04:09:58.904Z,100305.88
2023-07-24T04:12:25.439Z,100297.81
2023-07-24T04:14:51.963Z,100290.97
2023-07-24T04:17:18.670Z,100298.56
2023-07-24T04:19:45.331Z,100308.09
2023-07-24T04:22:11.880Z,100299.31
2023-07-24T04:24:38.457Z,100311.28
2023-07-24T04:27:05.401Z,100292.72
2023-07-24T04:29:31.967Z,100304.94
2023-07-24T04:31:58.421Z,100306.91
2023-07-24T04:34:24.884Z,100303.97
2023-07-24T04:36:51.446Z,100305.91
2023-07-24T04:39:17.940Z,100315.44
2023-07-24T04:41:44.511Z,100322.03
2023-07-24T04:44:11.084Z,100318.88
2023-07-24T04:46:37.618Z,100315.69
2023-07-24T04:49:04.233Z,100323.50
2023-07-24T04:51:30.779Z,100322.03
2023-07-24T04:53:57.310Z,100315.94
2023-07-24T04:56:23.891Z,100305.44
2023-07-24T04:58:50.466Z,100303.25
2023-07-24T05:01:17.007Z,100309.56
2023-07-24T05:03:43.495Z,100304.19
2023-07-24T05:06:10.088Z,100312.97
2023-07-24T05:08:36.687Z,100316.16
2023-07-24T05:11:03.164Z,100321.03
2023-07-24T05:13:29.770Z,100313.75
2023-07-24T05:15:56.283Z,100311.06
2023-07-24T05:18:22.895Z,100314.00
2023-07-24T05:20:52.788Z,100312.03
2023-07-24T05:23:19.798Z,100313.50
2023-07-24T05:25:46.411Z,100318.63
2023-07-24T05:28:12.909Z,100314.72
2023-07-24T05:30:39.482Z,100321.53
2023-07-24T05:33:06.101Z,100323.97
2023-07-24T05:35:32.819Z,100327.88
2023-07-24T05:37:59.381Z,100321.03
2023-07-24T05:40:25.955Z,100321.03
2023-07-24T05:42:52.614Z,100316.38
2023-07-24T05:45:19.273Z,100312.47
2023-07-24T05:47:45.791Z,100314.19
2023-07-24T05:50:14.474Z,100320.53
2023-07-24T05:52:41.659Z,100317.34
2023-07-24T05:55:08.877Z,100321.97
2023-07-24T05:57:35.430Z,100324.88
2023-07-24T06:00:02.537Z,100321.31
2023-07-24T06:02:37.956Z,100323.53
2023-07-24T06:05:04.983Z,100329.13
2023-07-24T06:07:34.349Z,100328.31
2023-07-24T06:10:00.887Z,100324.41
2023-07-24T06:12:27.420Z,100327.28
2023-07-24T06:14:54.053Z,100336.00
2023-07-24T06:17:20.608Z,100328.81
2023-07-24T06:19:47.231Z,100322.00
2023-07-24T06:22:13.750Z,100329.56
2023-07-24T06:24:40.532Z,100329.47
2023-07-24T06:27:09.914Z,100333.81
2023-07-24T06:29:38.056Z,100331.41
2023-07-24T06:32:06.222Z,100333.09
2023-07-24T06:34:32.780Z,100332.44
2023-07-24T06:37:09.144Z,100326.91
2023-07-24T06:39:44.635Z,100333.88
2023-07-24T06:42:11.224Z,100326.44
2023-07-24T06:44:37.797Z,100332.41
2023-07-24T06:47:04.552Z,100336.94
2023-07-24T06:49:31.122Z,100338.19
2023-07-24T06:51:57.660Z,100335.56
2023-07-24T06:54:24.206Z,100338.69
2023-07-24T06:56:50.720Z,100338.34
2023-07-24T06:59:17.291Z,100335.38
2023-07-24T07:01:43.897Z,100335.44
2023-07-24T07:04:10.451Z,100336.75
2023-07-24T07:06:39.080Z,100336.97
2023-07-24T07:09:06.569Z,100341.84
2023-07-24T07:11:33.211Z,100336.91
2023-07-24T07:13:59.765Z,100338.13
2023-07-24T07:16:26.454Z,100331.78
2023-07-24T07:18:52.980Z,100346.38
2023-07-24T07:21:19.627Z,100348.34
2023-07-24T07:23:47.498Z,100338.41
2023-07-24T07:26:14.107Z,100346.44
2023-07-24T07:28:40.657Z,100349.75
2023-07-24T07:31:07.341Z,100346.78
2023-07-24T07:33:33.828Z,100348.69
2023-07-24T07:36:00.306Z,100345.97
2023-07-24T07:38:26.872Z,100339.91
2023-07-24T07:40:53.405Z,100335.53
2023-07-24T07:43:20.063Z,100336.56
2023-07-24T07:45:47.761Z,100327.31
2023-07-24T07:48:14.351Z,100325.84
2023-07-24T07:50:40.865Z,100321.78
2023-07-24T07:53:08.909Z,100318.59
2023-07-24T07:55:35.414Z,100323.88
2023-07-24T07:58:01.896Z,100327.09
2023-07-24T08:00:28.520Z,100311.72
2023-07-24T08:02:55.113Z,100319.63
2023-07-24T08:05:21.952Z,100312.63
2023-07-24T08:07:48.665Z,100316.47
2023-07-24T08:10:17.367Z,100314.22
2023-07-24T08:12:44.830Z,100313.06
2023-07-24T08:15:12.401Z,100314.94
2023-07-24T08:17:39.108Z,100312.91
2023-07-24T08:20:06.224Z,100318.69
2023-07-24T08:22:32.959Z,100318.09
2023-07-24T08:24:59.646Z,100315.00
2023-07-24T08:27:26.251Z,100309.00
2023-07-24T08:29:53.914Z,100314.97
2023-07-24T08:32:20.964Z,100321.94
2023-07-24T08:34:47.696Z,100321.63
2023-07-24T08:37:14.244Z,100323.91
2023-07-24T08:39:40.887Z,100326.81
2023-07-24T08:42:14.241Z,100322.25
2023-07-24T08:44:41.215Z,100328.38
2023-07-24T08:47:11.324Z,100324.66
2023-07-24T08:49:40.070Z,100320.28
2023-07-24T08:52:07.796Z,100319.31
2023-07-24T08:54:37.651Z,100326.91
2023-07-24T08:57:07.472Z,100326.19
2023-07-24T08:59:34.930Z,100322.63
2023-07-24T09:02:01.694Z,100330.66
2023-07-24T09:04:28.422Z,100321.25
2023-07-24T09:06:59.163Z,100315.34
2023-07-24T09:09:31.599Z,100314.22
2023-07-24T09:12:00.158Z,100309.22
2023-07-24T09:14:33.155Z,100306.63
2023-07-24T09:17:07.610Z,100303.13
2023-07-24T09:19:34.813Z,100298.03
2023-07-24T09:22:11.498Z,100288.53
2023-07-24T09:24:39.241Z,100294.66
2023-07-24T09:27:08.218Z,100303.31
2023-07-24T09:29:35.321Z,100297.94
2023-07-24T09:32:02.097Z,100291.06
2023-07-24T09:34:28.859Z,100291.50
2023-07-24T09:36:55.380Z,100281.78
2023-07-24T09:39:29.375Z,100282.56
2023-07-24T09:42:04.258Z,100266.41
2023-07-24T09:44:32.331Z,100265.84
2023-07-24T09:47:06.564Z,100267.34
2023-07-24T09:49:46.914Z,100262.19
2023-07-24T09:52:15.276Z,100271.44
2023-07-24T09:55:12.350Z,100285.13
2023-07-24T09:57:39.925Z,100297.91
2023-07-24T10:00:08.436Z,100295.66
2023-07-24T10:02:36.297Z,100296.63
2023-07-24T10:05:03.005Z,100286.81
2023-07-24T10:07:30.648Z,100274.16
2023-07-24T10:09:57.908Z,100279.63
2023-07-24T10:12:28.888Z,100290.50
2023-07-24T10:14:56.496Z,100287.72
2023-07-24T10:17:37.228Z,100287.38
2023-07-24T10:20:09.175Z,100288.97
2023-07-24T10:22:38.694Z,100274.47
2023-07-24T10:25:05.685Z,100260.72
2023-07-24T10:27:32.399Z,100263.75
2023-07-24T10:30:11.888Z,100266.44
2023-07-24T10:32:53.067Z,100259.97
2023-07-24T10:35:23.813Z,100265.03
2023-07-24T10:38:00.400Z,100274.22
2023-07-24T10:40:26.911Z,100261.47
2023-07-24T10:43:01.082Z,100268.88
2023-07-24T10:45:27.694Z,100264.06
2023-07-24T10:47:55.108Z,100265.50
2023-07-24T10:50:21.649Z,100259.75
2023-07-24T10:52:48.503Z,100246.84
2023-07-24T10:55:14.967Z,100253.28
2023-07-24T10:57:41.686Z,100254.38
2023-07-24T11:00:08.885Z,100250.69
2023-07-24T11:02:35.550Z,100248.31
2023-07-24T11:05:02.402Z,100250.16
2023-07-24T11:07:34.066Z,100249.75
2023-07-24T11:10:00.553Z,100257.84
2023-07-24T11:12:31.718Z,100247.00
2023-07-24T11:14:59.985Z,100250.28
2023-07-24T11:17:38.250Z,100252.94
2023-07-24T11:20:09.154Z,100257.78
2023-07-24T11:22:35.770Z,100255.03
2023-07-24T11:25:02.831Z,100259.03
2023-07-24T11:27:29.309Z,100262.22
2023-07-24T11:29:55.794Z,100264.50
2023-07-24T11:32:23.147Z,100263.97
2023-07-24T11:34:51.338Z,100260.34
2023-07-24T11:37:21.519Z,100266.84
2023-07-24T11:40:09.344Z,100270.00
2023-07-24T11:42:40.436Z,100277.53
2023-07-24T11:45:10.724Z,100273.59
2023-07-24T11:47:44.455Z,100280.06
2023-07-24T11:50:11.289Z,100276.72
2023-07-24T11:52:51.392Z,100282.19
2023-07-24T11:55:31.337Z,100289.63
2023-07-24T11:57:59.096Z,100282.44
2023-07-24T12:00:25.813Z,100281.38
2023-07-24T12:02:52.493Z,100280.97
2023-07-24T12:05:19.487Z,100276.81
2023-07-24T12:07:47.208Z,100280.78
2023-07-24T12:10:15.323Z,100270.34
2023-07-24T12:12:47.354Z,100274.03
2023-07-24T12:15:15.410Z,100275.53
2023-07-24T12:17:42.534Z,100273.44
2023-07-24T12:20:13.497Z,100260.06
2023-07-24T12:22:40.232Z,100260.69
2023-07-24T12:25:07.615Z,100252.00
2023-07-24T12:27:34.534Z,100255.88
2023-07-24T12:30:01.677Z,100247.97
2023-07-24T12:32:28.312Z,100255.38
2023-07-24T12:34:55.283Z,100259.94
2023-07-24T12:37:21.849Z,100247.09
2023-07-24T12:39:49.233Z,100255.22
2023-07-24T12:42:16.975Z,100251.41
2023-07-24T12:44:44.134Z,100254.44
2023-07-24T12:47:12.099Z,100265.25
2023-07-24T12:49:38.936Z,100248.09
2023-07-24T12:52:06.695Z,100262.84
2023-07-24T12:54:46.343Z,100272.72
2023-07-24T12:57:19.971Z,100277.66
2023-07-24T12:59:46.605Z,100278.72
2023-07-24T13:02:13.233Z,100282.72
2023-07-24T13:04:40.067Z,100273.16
2023-07-24T13:07:06.669Z,100268.50
2023-07-24T13:09:33.169Z,100258.88
2023-07-24T13:11:59.843Z,100254.19
2023-07-24T13:14:26.365Z,100255.53
2023-07-24T13:16:53.101Z,100266.25
2023-07-24T13:19:21.747Z,100267.50
2023-07-24T13:21:48.459Z,100274.06
2023-07-24T13:24:15.324Z,100283.34
2023-07-24T13:26:42.054Z,100277.81
2023-07-24T13:29:08.604Z,100268.88
2023-07-24T13:31:36.122Z,100262.31
2023-07-24T13:34:03.259Z,100259.94
2023-07-24T13:36:30.178Z,100261.00
2023-07-24T13:38:57.022Z,100267.84
2023-07-24T13:41:26.144Z,100265.94
2023-07-24T13:43:52.851Z,100275.50
2023-07-24T13:46:19.828Z,100269.88
2023-07-24T13:48:46.426Z,100269.91
2023-07-24T13:51:13.034Z,100276.91
2023-07-24T13:53:39.700Z,100278.44
2023-07-24T13:56:06.660Z,100282.25
2023-07-24T13:58:33.203Z,100284.22
2023-07-24T14:00:59.880Z,100277.88
2023-07-24T14:03:30.280Z,100278.31
2023-07-24T14:05:57.908Z,100274.91
2023-07-24T14:08:24.650Z,100275.25
2023-07-24T14:10:51.627Z,100283.97
2023-07-24T14:13:18.467Z,100278.44
2023-07-24T14:15:45.016Z,100278.66
2023-07-24T14:18:11.587Z,100267.94
2023-07-24T14:20:41.538Z,100272.16
2023-07-24T14:23:11.695Z,100280.06
2023-07-24T14:25:38.278Z,100279.41
2023-07-24T14:28:05.008Z,100289.69
2023-07-24T14:30:31.564Z,100290.72
2023-07-24T14:32:58.034Z,100290.81
2023-07-24T14:35:24.565Z,100287.16
2023-07-24T14:37:51.108Z,100287.28
2023-07-24T14:40:18.102Z,100295.19
2023-07-24T14:42:44.800Z,100289.47
2023-07-24T14:45:11.506Z,100294.78
2023-07-24T14:47:38.063Z,100300.41
2023-07-24T14:50:05.052Z,100297.50
2023-07-24T14:52:31.569Z,100306.84
2023-07-24T14:54:58.114Z,100310.41
2023-07-24T14:57:26.515Z,100315.41
2023-07-24T14:59:53.680Z,100316.44
2023-07-24T15:02:20.335Z,100316.50
2023-07-24T15:04:47.039Z,100312.75
2023-07-24T15:07:13.610Z,100316.06
2023-07-24T15:09:40.161Z,100319.22
2023-07-24T15:12:06.912Z,100320.88
2023-07-24T15:14:33.470Z,100320.38
2023-07-24T15:17:00.090Z,100321.28
2023-07-24T15:19:26.693Z,100318.66
2023-07-24T15:21:53.347Z,100316.28
2023-07-24T15:24:20.367Z,100318.38
2023-07-24T15:26:47.218Z,100321.25
2023-07-24T15:29:18.862Z,100328.94
2023-07-24T15:31:46.530Z,100336.41
2023-07-24T15:34:13.290Z,100338.69
2023-07-24T15:36:39.849Z,100332.31
2023-07-24T15:39:06.513Z,100344.50
2023-07-24T15:41:33.537Z,100348.25
2023-07-24T15:44:00.514Z,100345.09
2023-07-24T15:46:29.934Z,100351.09
2023-07-24T15:48:57.539Z,100349.94
2023-07-24T15:51:25.605Z,100358.44
2023-07-24T15:53:52.131Z,100363.72
2023-07-24T15:56:18.888Z,100370.44
2023-07-24T15:58:47.548Z,100374.94
2023-07-24T16:01:14.191Z,100376.75
2023-07-24T16:03:40.787Z,100369.94
2023-07-24T16:06:07.258Z,100388.38
2023-07-24T16:08:33.755Z,100394.03
2023-07-24T16:11:00.324Z,100391.06
2023-07-24T16:13:26.904Z,100392.97
2023-07-24T16:15:53.613Z,100399.84
2023-07-24T16:18:24.440Z,100408.03
2023-07-24T16:20:51.257Z,100407.91
2023-07-24T16:23:17.858Z,100423.75
2023-07-24T16:25:44.475Z,100426.84
2023-07-24T16:28:11.013Z,100419.09
2023-07-24T16:30:37.589Z,100427.25
2023-07-24T16:33:04.298Z,100434.44
2023-07-24T16:35:32.227Z,100451.84
2023-07-24T16:37:58.850Z,100457.47
2023-07-24T16:40:25.385Z,100462.91
2023-07-24T16:42:56.636Z,100470.75
2023-07-24T16:47:52.932Z,100465.41
2023-07-24T16:50:19.663Z,100480.06
2023-07-24T16:52:46.234Z,100482.53
2023-07-24T16:55:12.780Z,100478.34
2023-07-24T16:57:39.447Z,100484.22
2023-07-24T17:00:08.523Z,100494.25
2023-07-24T17:02:36.693Z,100495.00
2023-07-24T17:05:03.477Z,100489.63
2023-07-24T17:07:30.012Z,100490.59
2023-07-24T17:09:56.516Z,100493.28
2023-07-24T17:12:23.096Z,100489.38
2023-07-24T17:14:49.755Z,100496.94
2023-07-24T17:17:16.328Z,100492.06
2023-07-24T17:19:43.071Z,100505.03
2023-07-24T17:22:09.894Z,100507.72
2023-07-24T17:24:36.865Z,100503.34
2023-07-24T17:27:03.766Z,100503.34
2023-07-24T17:29:30.334Z,100509.22
2023-07-24T17:31:56.948Z,100512.16
2023-07-24T17:34:23.540Z,100512.63
2023-07-24T17:36:50.114Z,100518.25
2023-07-24T17:39:16.822Z,100515.56
2023-07-24T17:41:43.275Z,100521.91
2023-07-24T17:44:09.840Z,100519.94
2023-07-24T17:46:36.643Z,100532.91
2023-07-24T17:49:03.298Z,100525.59
2023-07-24T17:51:31.117Z,100530.72
2023-07-24T17:54:00.631Z,100534.88
2023-07-24T17:56:27.114Z,100529.97
2023-07-24T17:58:53.721Z,100538.53
2023-07-24T18:01:22.024Z,100547.31
2023-07-24T18:03:48.814Z,100555.88
2023-07-24T18:06:15.464Z,100550.50
2023-07-24T18:08:41.983Z,100550.25
2023-07-24T18:11:08.655Z,100551.72
2023-07-24T18:13:35.158Z,100550.03
2023-07-24T18:16:01.752Z,100553.44
2023-07-24T18:18:28.746Z,100560.53
2023-07-24T18:20:55.706Z,100560.06
2023-07-24T18:23:22.261Z,100565.66
2023-07-24T18:25:48.759Z,100558.81
2023-07-24T18:28:17.190Z,100563.69
2023-07-24T18:30:43.784Z,100567.59
2023-07-24T18:33:11.313Z,100566.13
2023-07-24T18:35:38.046Z,100574.22
2023-07-24T18:38:04.598Z,100573.94
2023-07-24T18:40:31.204Z,100572.97
2023-07-24T18:42:57.769Z,100583.16
2023-07-24T18:45:24.400Z,100584.63
2023-07-24T18:47:50.967Z,100590.97
2023-07-24T18:50:17.490Z,100596.59
2023-07-24T18:52:44.017Z,100601.94
2023-07-24T18:55:10.638Z,100605.84
2023-07-24T18:57:37.198Z,100603.88
2023-07-24T19:00:04.289Z,100608.22
2023-07-24T19:02:30.909Z,100598.44
2023-07-24T19:04:57.644Z,100602.31
2023-07-24T19:07:24.116Z,100603.53
2023-07-24T19:09:50.595Z,100609.59
2023-07-24T19:12:19.994Z,100606.19
2023-07-24T19:14:46.520Z,100613.00
2023-07-24T19:17:13.037Z,100611.53
2023-07-24T19:19:39.557Z,100618.88
2023-07-24T19:22:06.868Z,100624.47
2023-07-24T19:24:33.605Z,100627.63
2023-07-24T19:27:00.702Z,100628.31
2023-07-24T19:29:27.221Z,100630.03
2023-07-24T19:31:53.917Z,100626.38
2023-07-24T19:34:20.524Z,100630.75
2023-07-24T19:36:47.132Z,100633.91
2023-07-24T19:39:14.045Z,100639.22
2023-07-24T19:41:40.616Z,100640.91
2023-07-24T19:44:07.306Z,100644.34
2023-07-24T19:46:33.904Z,100649.44
2023-07-24T19:49:01.227Z,100651.88
2023-07-24T19:51:27.789Z,100653.78
2023-07-24T19:53:54.449Z,100652.03
2023-07-24T19:56:21.035Z,100658.88
2023-07-24T19:58:47.566Z,100661.03
2023-07-24T20:01:14.101Z,100664.66
2023-07-24T20:03:40.773Z,100673.19
2023-07-24T20:06:08.530Z,100671.47
2023-07-24T20:08:35.563Z,100679.78
2023-07-24T20:11:07.617Z,100688.81
2023-07-24T20:13:34.990Z,100687.81
2023-07-24T20:16:02.308Z,100685.78
2023-07-24T20:18:28.986Z,100691.59
2023-07-24T20:20:56.285Z,100689.59
2023-07-24T20:23:23.336Z,100692.03
2023-07-24T20:25:51.684Z,100688.56
2023-07-24T20:28:19.506Z,100692.66
2023-07-24T20:30:46.455Z,100706.53
2023-07-24T20:33:13.529Z,100699.91
2023-07-24T20:35:40.071Z,100702.28
2023-07-24T20:38:07.627Z,100700.47
2023-07-24T20:40:35.007Z,100713.56
2023-07-24T20:43:05.600Z,100719.59
2023-07-24T20:45:32.300Z,100722.19
2023-07-24T20:47:59.033Z,100723.31
2023-07-24T20:50:25.855Z,100718.16
2023-07-24T20:52:52.406Z,100718.63
2023-07-24T20:55:18.982Z,100723.47
2023-07-24T20:57:45.541Z,100724.59
2023-07-24T21:00:12.732Z,100728.69
2023-07-24T21:02:39.293Z,100725.75
2023-07-24T21:05:06.316Z,100724.47
2023-07-24T21:07:32.866Z,100727.31
2023-07-24T21:09:59.400Z,100730.66
2023-07-24T21:12:26.048Z,100727.63
2023-07-24T21:14:52.642Z,100724.41
2023-07-24T21:17:19.551Z,100726.72
2023-07-24T21:19:46.163Z,100732.72
2023-07-24T21:22:14.155Z,100730.53
2023-07-24T21:24:40.754Z,100726.09
2023-07-24T21:27:07.439Z,100733.75
2023-07-24T21:29:33.990Z,100737.34
2023-07-24T21:32:00.530Z,100730.44
2023-07-24T21:34:27.134Z,100724.53
2023-07-24T21:36:53.687Z,100723.72
2023-07-24T21:39:20.429Z,100723.91
2023-07-24T21:41:46.970Z,100725.56
2023-07-24T21:44:13.526Z,100728.72
2023-07-24T21:46:40.141Z,100726.97
2023-07-24T21:49:06.744Z,100732.31
2023-07-24T21:51:33.706Z,100727.59
2023-07-24T21:54:00.556Z,100731.19
2023-07-24T21:56:27.242Z,100726.75
2023-07-24T21:58:53.750Z,100723.53
2023-07-24T22:01:21.373Z,100724.91
2023-07-24T22:03:48.617Z,100728.25
2023-07-24T22:06:15.255Z,100735.72
2023-07-24T22:08:41.964Z,100728.03
2023-07-24T22:11:12.977Z,100736.53
2023-07-24T22:13:41.516Z,100728.22
2023-07-24T22:16:08.291Z,100734.31
2023-07-24T22:18:34.948Z,100735.97
2023-07-24T22:21:01.916Z,100732.72
2023-07-24T22:23:28.774Z,100734.09
2023-07-24T22:25:55.927Z,100736.94
2023-07-24T22:28:22.596Z,100733.25
2023-07-24T22:30:49.952Z,100730.75
2023-07-24T22:33:16.804Z,100734.34
2023-07-24T22:35:43.309Z,100734.53
2023-07-24T22:38:09.903Z,100738.09
2023-07-24T22:40:36.435Z,100734.56
2023-07-24T22:43:03.132Z,100728.66
2023-07-24T22:45:29.724Z,100731.50
2023-07-24T22:47:56.479Z,100727.81
2023-07-24T22:50:23.277Z,100733.31
2023-07-24T22:52:49.955Z,100730.81
2023-07-24T22:55:19.552Z,100728.75
2023-07-24T22:57:46.131Z,100730.13
2023-07-24T23:00:13.128Z,100727.19
2023-07-24T23:02:39.681Z,100727.81
2023-07-24T23:05:06.861Z,100732.88
2023-07-24T23:07:33.382Z,100729.16
2023-07-24T23:09:59.904Z,100728.31
2023-07-24T23:12:26.556Z,100731.16
2023-07-24T23:14:53.202Z,100731.03
2023-07-24T23:17:19.813Z,100729.25
2023-07-24T23:19:46.404Z,100732.09
2023-07-24T23:22:13.066Z,100735.66
2023-07-24T23:24:39.664Z,100735.38
2023-07-24T23:27:06.333Z,100733.34
2023-07-24T23:29:32.850Z,100739.41
2023-07-24T23:31:59.393Z,100744.47
2023-07-24T23:34:26.077Z,100742.53
2023-07-24T23:36:52.707Z,100736.16
2023-07-24T23:39:19.455Z,100745.34
2023-07-24T23:41:46.017Z,100739.44
2023-07-24T23:44:12.554Z,100734.25
2023-07-24T23:46:41.118Z,100739.31
2023-07-24T23:49:07.775Z,100733.38
2023-07-24T23:51:34.617Z,100737.69
2023-07-24T23:54:01.437Z,100743.19
2023-07-24T23:56:28.033Z,100738.31
2023-07-24T23:58:54.557Z,100746.47
